createdAt,value
2022-11-09T00:00:46.807Z,5.7
2022-11-09T00:16:28.944Z,5.5
2022-11-09T00:32:11.814Z,5.7
2022-11-09T00:47:54.082Z,5.6
2022-11-09T01:03:36.414Z,5.6
2022-11-09T01:19:18.807Z,5.3
2022-11-09T01:35:01.162Z,4.5
2022-11-09T01:50:43.475Z,5.7
2022-11-09T02:06:25.652Z,4.69
2022-11-09T02:22:08.511Z,5.5
2022-11-09T02:37:51.431Z,5.5
2022-11-09T02:53:34.061Z,5.5
2022-11-09T03:09:16.440Z,6.3
2022-11-09T03:24:59.230Z,4.69
2022-11-09T03:40:41.711Z,5.6
2022-11-09T03:56:24.246Z,5.5
2022-11-09T04:12:07.238Z,5.1
2022-11-09T04:27:49.472Z,4.6
2022-11-09T04:43:32.508Z,6.1
2022-11-09T04:59:15.411Z,4.8
2022-11-09T05:14:57.857Z,8.1
2022-11-09T05:30:40.611Z,7.8
2022-11-09T05:46:23.224Z,7.7
2022-11-09T06:02:05.358Z,6.5
2022-11-09T06:17:47.932Z,8.39
2022-11-09T06:33:30.411Z,11.3
2022-11-09T06:49:12.823Z,11.7
2022-11-09T07:04:54.928Z,10.1
2022-11-09T07:20:37.187Z,7.2
2022-11-09T07:36:20.166Z,8.39
2022-11-09T07:52:02.862Z,7.8
2022-11-09T08:07:45.667Z,8.1
2022-11-09T08:23:27.848Z,7.6
2022-11-09T08:39:10.107Z,8.3
2022-11-09T08:54:52.535Z,9.2
2022-11-09T09:10:35.106Z,8.3
2022-11-09T09:26:18.069Z,8.2
2022-11-09T09:42:00.907Z,7.2
2022-11-09T09:57:43.791Z,8.89
2022-11-09T10:13:25.882Z,8.1
2022-11-09T10:29:08.332Z,7.4
2022-11-09T10:44:51.294Z,8.3
2022-11-09T11:00:33.901Z,7.9
2022-11-09T11:16:16.043Z,6.8
2022-11-09T11:31:59.022Z,6.3
2022-11-09T11:47:41.627Z,6.1
2022-11-09T12:03:23.942Z,6.6
2022-11-09T12:19:06.388Z,5.8
2022-11-09T12:34:49.398Z,5.8
2022-11-09T12:50:32.078Z,4.9
2022-11-09T13:06:14.494Z,4.5
2022-11-09T13:21:56.674Z,2.8
2022-11-09T13:37:39.777Z,4.19
2022-11-09T13:53:22.215Z,4.6
2022-11-09T14:09:04.746Z,4.8
2022-11-09T14:24:47.468Z,7.5
2022-11-09T14:40:29.647Z,9.6
2022-11-09T14:56:11.986Z,6.7
2022-11-09T14:56:59.377Z,6.9
2022-11-09T15:12:42.294Z,9.1
2022-11-09T15:28:24.432Z,7.6
2022-11-09T15:44:06.815Z,8.3
2022-11-09T15:59:49.571Z,8.3
2022-11-09T16:15:31.914Z,8.6
2022-11-09T16:31:14.914Z,12.4
2022-11-09T16:46:57.679Z,12.2
2022-11-09T17:02:40.261Z,12.4
2022-11-09T17:18:22.569Z,12.3
2022-11-09T17:34:05.380Z,12
2022-11-09T17:49:48.229Z,12.1
2022-11-09T18:05:30.401Z,9.8
2022-11-09T18:21:13.399Z,11
2022-11-09T18:36:56.187Z,10.7
2022-11-09T18:52:38.422Z,10.1
2022-11-09T19:08:21.044Z,10.2
2022-11-09T19:24:03.320Z,13.9
2022-11-09T19:39:45.900Z,12.7
2022-11-09T19:55:28.448Z,13.7
2022-11-09T20:11:10.656Z,11
2022-11-09T20:26:53.652Z,11.9
2022-11-09T20:42:36.435Z,11
2022-11-09T20:58:19.379Z,13.4
2022-11-09T21:14:01.686Z,9.5
2022-11-09T21:29:44.293Z,13.5
2022-11-09T21:45:26.974Z,11.3
2022-11-09T22:01:09.567Z,8.39
2022-11-09T22:16:52.379Z,8.7
2022-11-09T22:32:34.765Z,7.3
2022-11-09T22:48:17.515Z,6.4
2022-11-09T23:03:59.809Z,7.3
2022-11-09T23:19:42.566Z,8.39
2022-11-09T23:35:24.789Z,5.2
2022-11-09T23:51:07.483Z,5.9
